Kremlin, Montana
Current Conditions -  °F | °C
As of 9:53 PM on Tuesday 25 Nov 2014 (Local Time) from KHVR Reporting Station
Overcast Overcast  
Wind Chill: 23°   Ceiling: 2100
Heat Index: 28°   Visibility: 10mi
Dew Point: 23°   Wind: 5mph
Humidity: 81%   Direction: 300°WNW
Pressure: 30.17"   Gusts: NA
Location:  48.57°N, 110.09°W
Report Text: KHVR 260453Z AUTO 30004KT 10SM BKN021 OVC100 M02/M05 A3017 RMK AO2 SLP241 T10221050
Loading
Personal Weather Stations






























Interactive Weather Map New forecast layout! Learn more

10-Day Weather Forecast

Advertisements
Track Severe Weather on mobile